CDG8807 ZYTL-ZSJN
Flight info
| Callsign | CDG8807 |
|---|---|
| Flight time | 0h 47m |
| Altitude | 34100 |
| Route | KAR09D KARPI W5 HCH W4 BASOV BASOV6W |
| Aircraft | B738/M-SDE2E3FGHIRWXY/LB1 |
Departure
| Time | 2026-04-17 00:12 |
|---|---|
| Airport | Dalian Zhoushuizi International Airport (ZYTL) |
Arrival
| Time | 2026-04-17 00:59 |
|---|---|
| Airport | Jinan Yaoqiang International Airport (ZSJN) |
| Time | Latitude | Longitude | Altitude | Speed | Heading |
|---|---|---|---|---|---|
| 2026-04-16 23:44 | 38.96227 | 121.54298 | 115 ft | 0 kts | 183° |
| 2026-04-17 00:01 | 38.96230 | 121.54298 | 114 ft | 2 kts | 183° |
| 2026-04-17 00:01 | 38.96246 | 121.54298 | 114 ft | 2 kts | 183° |
| 2026-04-17 00:01 | 38.96260 | 121.54299 | 114 ft | 2 kts | 183° |
| 2026-04-17 00:02 | 38.96275 | 121.54301 | 114 ft | 2 kts | 183° |
| 2026-04-17 00:02 | 38.96290 | 121.54301 | 114 ft | 2 kts | 183° |
| 2026-04-17 00:02 | 38.96305 | 121.54302 | 114 ft | 2 kts | 183° |
| 2026-04-17 00:02 | 38.96320 | 121.54303 | 114 ft | 2 kts | 183° |
| 2026-04-17 00:03 | 38.96336 | 121.54306 | 114 ft | 2 kts | 208° |
| 2026-04-17 00:03 | 38.96347 | 121.54318 | 114 ft | 2 kts | 231° |
| 2026-04-17 00:03 | 38.96354 | 121.54334 | 114 ft | 2 kts | 257° |
| 2026-04-17 00:03 | 38.96355 | 121.54353 | 114 ft | 1 kts | 280° |
| 2026-04-17 00:04 | 38.96354 | 121.54359 | 114 ft | 0 kts | 279° |
| 2026-04-17 00:06 | 38.96356 | 121.54339 | 114 ft | 7 kts | 276° |
| 2026-04-17 00:07 | 38.96362 | 121.54261 | 114 ft | 11 kts | 276° |
| 2026-04-17 00:07 | 38.96373 | 121.54107 | 114 ft | 20 kts | 276° |
| 2026-04-17 00:07 | 38.96387 | 121.53925 | 114 ft | 19 kts | 276° |
| 2026-04-17 00:07 | 38.96401 | 121.53751 | 114 ft | 18 kts | 276° |
| 2026-04-17 00:08 | 38.96411 | 121.53590 | 114 ft | 17 kts | 275° |
| 2026-04-17 00:08 | 38.96424 | 121.53436 | 114 ft | 16 kts | 277° |
| 2026-04-17 00:08 | 38.96423 | 121.53292 | 114 ft | 15 kts | 261° |
| 2026-04-17 00:08 | 38.96423 | 121.53159 | 114 ft | 15 kts | 275° |
| 2026-04-17 00:09 | 38.96435 | 121.52977 | 114 ft | 21 kts | 275° |
| 2026-04-17 00:09 | 38.96450 | 121.52791 | 114 ft | 16 kts | 277° |
| 2026-04-17 00:09 | 38.96462 | 121.52649 | 114 ft | 14 kts | 276° |
| 2026-04-17 00:09 | 38.96474 | 121.52506 | 114 ft | 5 kts | 276° |
| 2026-04-17 00:10 | 38.96483 | 121.52400 | 114 ft | 15 kts | 276° |
| 2026-04-17 00:10 | 38.96492 | 121.52267 | 114 ft | 14 kts | 275° |
| 2026-04-17 00:10 | 38.96500 | 121.52138 | 114 ft | 13 kts | 275° |
| 2026-04-17 00:10 | 38.96510 | 121.52020 | 114 ft | 12 kts | 279° |
| 2026-04-17 00:11 | 38.96567 | 121.51957 | 114 ft | 11 kts | 1° |
| 2026-04-17 00:11 | 38.96644 | 121.51961 | 114 ft | 10 kts | 8° |
| 2026-04-17 00:11 | 38.96704 | 121.52022 | 114 ft | 17 kts | 78° |
| 2026-04-17 00:11 | 38.96685 | 121.52334 | 114 ft | 66 kts | 96° |
| 2026-04-17 00:12 | 38.96615 | 121.53242 | 114 ft | 134 kts | 96° |
| 2026-04-17 00:12 | 38.96503 | 121.54672 | 218 ft | 179 kts | 96° |
| 2026-04-17 00:12 | 38.96377 | 121.56309 | 794 ft | 194 kts | 94° |
| 2026-04-17 00:12 | 38.96600 | 121.57941 | 1750 ft | 190 kts | 66° |
| 2026-04-17 00:13 | 38.97581 | 121.59139 | 2046 ft | 208 kts | 19° |
| 2026-04-17 00:13 | 38.99029 | 121.59174 | 2376 ft | 217 kts | 339° |
| 2026-04-17 00:13 | 39.00347 | 121.58160 | 2740 ft | 227 kts | 317° |
| 2026-04-17 00:13 | 39.01521 | 121.56702 | 3172 ft | 239 kts | 307° |
| 2026-04-17 00:14 | 39.02415 | 121.54915 | 3678 ft | 246 kts | 292° |
| 2026-04-17 00:14 | 39.02919 | 121.52778 | 4179 ft | 255 kts | 278° |
| 2026-04-17 00:14 | 39.02990 | 121.50485 | 4811 ft | 259 kts | 263° |
| 2026-04-17 00:14 | 39.02433 | 121.48292 | 5402 ft | 266 kts | 240° |
| 2026-04-17 00:15 | 39.01233 | 121.46463 | 6001 ft | 272 kts | 222° |
| 2026-04-17 00:15 | 38.99648 | 121.45127 | 6572 ft | 280 kts | 205° |
| 2026-04-17 00:15 | 38.97743 | 121.44609 | 7131 ft | 287 kts | 179° |
| 2026-04-17 00:15 | 38.95777 | 121.45104 | 7713 ft | 291 kts | 162° |
| 2026-04-17 00:16 | 38.93821 | 121.45784 | 8259 ft | 296 kts | 174° |
| 2026-04-17 00:16 | 38.91768 | 121.45575 | 8782 ft | 300 kts | 199° |
| 2026-04-17 00:16 | 38.89844 | 121.44554 | 9341 ft | 302 kts | 211° |
| 2026-04-17 00:16 | 38.88157 | 121.42954 | 9881 ft | 302 kts | 232° |
| 2026-04-17 00:17 | 38.86995 | 121.40724 | 10365 ft | 303 kts | 246° |
| 2026-04-17 00:17 | 38.86019 | 121.38266 | 10683 ft | 316 kts | 247° |
| 2026-04-17 00:17 | 38.85004 | 121.35710 | 10975 ft | 330 kts | 246° |
| 2026-04-17 00:17 | 38.83933 | 121.33088 | 11290 ft | 343 kts | 245° |
| 2026-04-17 00:18 | 38.82779 | 121.30323 | 11545 ft | 359 kts | 245° |
| 2026-04-17 00:18 | 38.81579 | 121.27467 | 11814 ft | 372 kts | 245° |
| 2026-04-17 00:18 | 38.80328 | 121.24493 | 12092 ft | 384 kts | 245° |
| 2026-04-17 00:18 | 38.79048 | 121.21463 | 12647 ft | 389 kts | 245° |
| 2026-04-17 00:19 | 38.77752 | 121.18408 | 13326 ft | 390 kts | 245° |
| 2026-04-17 00:19 | 38.76453 | 121.15356 | 13918 ft | 394 kts | 245° |
| 2026-04-17 00:19 | 38.75149 | 121.12298 | 14649 ft | 393 kts | 245° |
| 2026-04-17 00:19 | 38.73848 | 121.09244 | 15259 ft | 397 kts | 245° |
| 2026-04-17 00:20 | 38.72521 | 121.06132 | 15898 ft | 399 kts | 244° |
| 2026-04-17 00:20 | 38.71193 | 121.03024 | 16636 ft | 398 kts | 245° |
| 2026-04-17 00:20 | 38.69884 | 120.99963 | 17273 ft | 399 kts | 244° |
| 2026-04-17 00:20 | 38.68547 | 120.96841 | 17886 ft | 401 kts | 244° |
| 2026-04-17 00:21 | 38.67193 | 120.93681 | 18509 ft | 403 kts | 244° |
| 2026-04-17 00:21 | 38.65863 | 120.90581 | 19103 ft | 405 kts | 244° |
| 2026-04-17 00:21 | 38.64504 | 120.87415 | 19616 ft | 408 kts | 244° |
| 2026-04-17 00:21 | 38.63135 | 120.84229 | 20153 ft | 411 kts | 244° |
| 2026-04-17 00:22 | 38.60369 | 120.77799 | 21185 ft | 416 kts | 244° |
| 2026-04-17 00:22 | 38.58983 | 120.74583 | 21638 ft | 419 kts | 244° |
| 2026-04-17 00:22 | 38.57572 | 120.71311 | 22161 ft | 421 kts | 244° |
| 2026-04-17 00:23 | 38.56155 | 120.68031 | 22672 ft | 423 kts | 244° |
| 2026-04-17 00:23 | 38.54745 | 120.64773 | 23126 ft | 425 kts | 245° |
| 2026-04-17 00:23 | 38.53308 | 120.61459 | 23583 ft | 428 kts | 244° |
| 2026-04-17 00:23 | 38.51868 | 120.58136 | 23967 ft | 432 kts | 244° |
| 2026-04-17 00:24 | 38.50403 | 120.54758 | 24426 ft | 433 kts | 244° |
| 2026-04-17 00:24 | 38.48954 | 120.51419 | 24778 ft | 437 kts | 244° |
| 2026-04-17 00:24 | 38.47468 | 120.47997 | 25271 ft | 438 kts | 244° |
| 2026-04-17 00:24 | 38.45990 | 120.44598 | 25715 ft | 439 kts | 244° |
| 2026-04-17 00:25 | 38.44508 | 120.41193 | 26016 ft | 444 kts | 244° |
| 2026-04-17 00:25 | 38.43010 | 120.37753 | 26430 ft | 445 kts | 244° |
| 2026-04-17 00:25 | 38.41512 | 120.34315 | 26776 ft | 448 kts | 244° |
| 2026-04-17 00:25 | 38.39997 | 120.30841 | 27135 ft | 450 kts | 244° |
| 2026-04-17 00:26 | 38.38480 | 120.27370 | 27648 ft | 449 kts | 244° |
| 2026-04-17 00:26 | 38.36958 | 120.23893 | 28213 ft | 445 kts | 244° |
| 2026-04-17 00:26 | 38.35476 | 120.20512 | 28809 ft | 441 kts | 244° |
| 2026-04-17 00:26 | 38.33980 | 120.17101 | 29271 ft | 440 kts | 244° |
| 2026-04-17 00:27 | 38.32490 | 120.13705 | 29714 ft | 439 kts | 244° |
| 2026-04-17 00:27 | 38.31018 | 120.10355 | 30133 ft | 438 kts | 244° |
| 2026-04-17 00:27 | 38.29539 | 120.06989 | 30507 ft | 437 kts | 244° |
| 2026-04-17 00:27 | 38.28062 | 120.03632 | 30940 ft | 434 kts | 244° |
| 2026-04-17 00:28 | 38.26596 | 120.00301 | 31361 ft | 432 kts | 244° |
| 2026-04-17 00:28 | 38.25122 | 119.96960 | 31837 ft | 428 kts | 244° |
| 2026-04-17 00:28 | 38.23676 | 119.93684 | 32282 ft | 425 kts | 244° |
| 2026-04-17 00:28 | 38.22234 | 119.90424 | 32691 ft | 422 kts | 244° |
| 2026-04-17 00:29 | 38.20806 | 119.87196 | 33031 ft | 421 kts | 244° |
| 2026-04-17 00:29 | 38.19374 | 119.83961 | 33372 ft | 419 kts | 244° |
| 2026-04-17 00:29 | 38.17956 | 119.80759 | 33651 ft | 419 kts | 244° |
| 2026-04-17 00:29 | 38.16520 | 119.77520 | 33988 ft | 417 kts | 244° |
| 2026-04-17 00:30 | 38.15108 | 119.74337 | 34099 ft | 418 kts | 244° |
| 2026-04-17 00:30 | 38.13697 | 119.71159 | 34111 ft | 416 kts | 244° |
| 2026-04-17 00:30 | 38.10858 | 119.64779 | 34116 ft | 416 kts | 244° |
| 2026-04-17 00:31 | 38.08014 | 119.58404 | 34102 ft | 416 kts | 245° |
| 2026-04-17 00:31 | 38.05178 | 119.52061 | 34097 ft | 416 kts | 245° |
| 2026-04-17 00:32 | 38.02321 | 119.45681 | 34100 ft | 414 kts | 244° |
| 2026-04-17 00:32 | 37.99480 | 119.39350 | 34098 ft | 416 kts | 244° |
| 2026-04-17 00:33 | 37.96613 | 119.32972 | 34099 ft | 416 kts | 244° |
| 2026-04-17 00:33 | 37.93766 | 119.26653 | 34095 ft | 415 kts | 244° |
| 2026-04-17 00:34 | 37.90890 | 119.20279 | 34091 ft | 416 kts | 244° |
| 2026-04-17 00:34 | 37.88038 | 119.13974 | 34088 ft | 415 kts | 244° |
| 2026-04-17 00:35 | 37.85161 | 119.07625 | 34088 ft | 416 kts | 244° |
| 2026-04-17 00:35 | 37.82294 | 119.01308 | 34090 ft | 416 kts | 244° |
| 2026-04-17 00:36 | 37.79409 | 118.94968 | 34090 ft | 416 kts | 244° |
| 2026-04-17 00:36 | 37.76535 | 118.88666 | 34093 ft | 416 kts | 244° |
| 2026-04-17 00:37 | 37.73654 | 118.82355 | 34088 ft | 416 kts | 244° |
| 2026-04-17 00:37 | 37.70749 | 118.76006 | 34083 ft | 417 kts | 244° |
| 2026-04-17 00:38 | 37.67845 | 118.69675 | 34094 ft | 417 kts | 244° |
| 2026-04-17 00:38 | 37.64939 | 118.63350 | 34089 ft | 416 kts | 244° |
| 2026-04-17 00:39 | 37.62033 | 118.57039 | 34087 ft | 417 kts | 244° |
| 2026-04-17 00:39 | 37.59136 | 118.50756 | 34088 ft | 417 kts | 244° |
| 2026-04-17 00:40 | 37.56221 | 118.44450 | 34098 ft | 415 kts | 244° |
| 2026-04-17 00:40 | 37.54788 | 118.41356 | 33939 ft | 409 kts | 244° |
| 2026-04-17 00:40 | 37.53349 | 118.38253 | 33521 ft | 405 kts | 244° |
| 2026-04-17 00:41 | 37.51939 | 118.35213 | 32947 ft | 407 kts | 244° |
| 2026-04-17 00:41 | 37.50513 | 118.32137 | 32227 ft | 409 kts | 244° |
| 2026-04-17 00:41 | 37.49073 | 118.29029 | 31425 ft | 413 kts | 244° |
| 2026-04-17 00:41 | 37.47607 | 118.25926 | 30874 ft | 414 kts | 242° |
| 2026-04-17 00:42 | 37.46025 | 118.22869 | 30632 ft | 427 kts | 238° |
| 2026-04-17 00:42 | 37.44140 | 118.19900 | 30393 ft | 436 kts | 233° |
| 2026-04-17 00:42 | 37.42059 | 118.17121 | 29872 ft | 436 kts | 230° |
| 2026-04-17 00:42 | 37.39917 | 118.14496 | 28505 ft | 440 kts | 228° |
| 2026-04-17 00:43 | 37.37693 | 118.11884 | 26980 ft | 445 kts | 227° |
| 2026-04-17 00:43 | 37.35426 | 118.09264 | 25432 ft | 450 kts | 227° |
| 2026-04-17 00:43 | 37.33135 | 118.06623 | 24026 ft | 451 kts | 227° |
| 2026-04-17 00:43 | 37.30835 | 118.03960 | 23112 ft | 451 kts | 227° |
| 2026-04-17 00:44 | 37.28539 | 118.01291 | 22354 ft | 449 kts | 227° |
| 2026-04-17 00:44 | 37.26271 | 117.98645 | 21572 ft | 448 kts | 227° |
| 2026-04-17 00:44 | 37.24003 | 117.95990 | 20769 ft | 447 kts | 227° |
| 2026-04-17 00:44 | 37.21739 | 117.93333 | 19958 ft | 446 kts | 227° |
| 2026-04-17 00:45 | 37.19471 | 117.90667 | 19128 ft | 445 kts | 227° |
| 2026-04-17 00:45 | 37.17252 | 117.88062 | 18364 ft | 430 kts | 227° |
| 2026-04-17 00:45 | 37.15122 | 117.85568 | 17750 ft | 413 kts | 227° |
| 2026-04-17 00:45 | 37.13029 | 117.83110 | 17017 ft | 417 kts | 227° |
| 2026-04-17 00:46 | 37.10933 | 117.80639 | 16208 ft | 420 kts | 227° |
| 2026-04-17 00:46 | 37.08814 | 117.78141 | 15395 ft | 420 kts | 227° |
| 2026-04-17 00:46 | 37.06683 | 117.75635 | 14599 ft | 419 kts | 227° |
| 2026-04-17 00:46 | 37.04575 | 117.73159 | 13792 ft | 419 kts | 227° |
| 2026-04-17 00:47 | 37.02462 | 117.70682 | 13292 ft | 410 kts | 226° |
| 2026-04-17 00:47 | 37.00402 | 117.68276 | 12253 ft | 406 kts | 226° |
| 2026-04-17 00:47 | 36.98368 | 117.65899 | 11220 ft | 400 kts | 226° |
| 2026-04-17 00:47 | 36.96381 | 117.63580 | 10735 ft | 380 kts | 226° |
| 2026-04-17 00:48 | 36.94508 | 117.61404 | 10681 ft | 351 kts | 226° |
| 2026-04-17 00:48 | 36.92786 | 117.59404 | 10591 ft | 330 kts | 227° |
| 2026-04-17 00:48 | 36.91104 | 117.57434 | 10488 ft | 335 kts | 227° |
| 2026-04-17 00:48 | 36.89437 | 117.55476 | 10329 ft | 327 kts | 227° |
| 2026-04-17 00:49 | 36.87816 | 117.53583 | 10178 ft | 308 kts | 227° |
| 2026-04-17 00:49 | 36.86278 | 117.51794 | 9905 ft | 296 kts | 227° |
| 2026-04-17 00:49 | 36.84804 | 117.50076 | 9524 ft | 291 kts | 227° |
| 2026-04-17 00:49 | 36.83308 | 117.48327 | 9173 ft | 296 kts | 227° |
| 2026-04-17 00:50 | 36.81802 | 117.46569 | 8845 ft | 295 kts | 227° |
| 2026-04-17 00:50 | 36.80296 | 117.44817 | 8442 ft | 296 kts | 227° |
| 2026-04-17 00:50 | 36.78804 | 117.43085 | 8099 ft | 294 kts | 226° |
| 2026-04-17 00:50 | 36.77313 | 117.41356 | 7751 ft | 292 kts | 226° |
| 2026-04-17 00:51 | 36.75824 | 117.39630 | 7402 ft | 291 kts | 227° |
| 2026-04-17 00:51 | 36.74352 | 117.37923 | 7055 ft | 289 kts | 227° |
| 2026-04-17 00:51 | 36.72883 | 117.36221 | 6712 ft | 287 kts | 226° |
| 2026-04-17 00:51 | 36.71434 | 117.34544 | 6367 ft | 286 kts | 226° |
| 2026-04-17 00:52 | 36.69978 | 117.32858 | 6022 ft | 285 kts | 226° |
| 2026-04-17 00:52 | 36.68528 | 117.31182 | 5686 ft | 283 kts | 225° |
| 2026-04-17 00:52 | 36.67091 | 117.29522 | 5395 ft | 280 kts | 225° |
| 2026-04-17 00:52 | 36.65684 | 117.27895 | 5106 ft | 276 kts | 225° |
| 2026-04-17 00:53 | 36.64283 | 117.26279 | 4955 ft | 267 kts | 225° |
| 2026-04-17 00:53 | 36.62974 | 117.24715 | 4877 ft | 255 kts | 230° |
| 2026-04-17 00:53 | 36.61998 | 117.22957 | 4797 ft | 239 kts | 253° |
| 2026-04-17 00:53 | 36.61794 | 117.21028 | 4691 ft | 221 kts | 282° |
| 2026-04-17 00:54 | 36.62261 | 117.19213 | 4442 ft | 217 kts | 302° |
| 2026-04-17 00:54 | 36.63164 | 117.17770 | 4301 ft | 213 kts | 320° |
| 2026-04-17 00:54 | 36.64419 | 117.16770 | 4064 ft | 214 kts | 339° |
| 2026-04-17 00:54 | 36.65864 | 117.16355 | 3799 ft | 212 kts | 358° |
| 2026-04-17 00:55 | 36.67281 | 117.16581 | 3687 ft | 202 kts | 17° |
| 2026-04-17 00:55 | 36.68539 | 117.17279 | 3556 ft | 192 kts | 25° |
| 2026-04-17 00:55 | 36.69720 | 117.18008 | 3280 ft | 191 kts | 24° |
| 2026-04-17 00:55 | 36.70939 | 117.18713 | 2834 ft | 198 kts | 22° |
| 2026-04-17 00:56 | 36.72212 | 117.19406 | 2465 ft | 196 kts | 22° |
| 2026-04-17 00:56 | 36.73435 | 117.20036 | 2182 ft | 184 kts | 20° |
| 2026-04-17 00:56 | 36.74571 | 117.20586 | 1960 ft | 169 kts | 19° |
| 2026-04-17 00:56 | 36.75658 | 117.21080 | 1747 ft | 165 kts | 18° |
| 2026-04-17 00:57 | 36.76720 | 117.21499 | 1570 ft | 155 kts | 10° |
| 2026-04-17 00:57 | 36.77758 | 117.21581 | 1346 ft | 146 kts | 358° |
| 2026-04-17 00:57 | 36.78781 | 117.21595 | 1140 ft | 147 kts | 1° |
| 2026-04-17 00:57 | 36.79796 | 117.21648 | 936 ft | 145 kts | 0° |
| 2026-04-17 00:58 | 36.80810 | 117.21635 | 775 ft | 145 kts | 356° |
| 2026-04-17 00:58 | 36.81819 | 117.21584 | 577 ft | 145 kts | 359° |
| 2026-04-17 00:58 | 36.82833 | 117.21599 | 383 ft | 146 kts | 0° |
| 2026-04-17 00:58 | 36.83845 | 117.21596 | 184 ft | 147 kts | 359° |
| 2026-04-17 00:59 | 36.84856 | 117.21618 | 84 ft | 136 kts | 1° |
| 2026-04-17 00:59 | 36.85593 | 117.21604 | 83 ft | 77 kts | 7° |
| 2026-04-17 00:59 | 36.85900 | 117.21576 | 83 ft | 24 kts | 339° |
| 2026-04-17 00:59 | 36.85989 | 117.21515 | 83 ft | 13 kts | 324° |
| 2026-04-17 01:00 | 36.86057 | 117.21449 | 83 ft | 11 kts | 298° |
| 2026-04-17 01:00 | 36.86024 | 117.21378 | 83 ft | 10 kts | 191° |
| 2026-04-17 01:00 | 36.85955 | 117.21375 | 83 ft | 9 kts | 177° |
| 2026-04-17 01:00 | 36.85886 | 117.21375 | 83 ft | 11 kts | 181° |
| 2026-04-17 01:01 | 36.85771 | 117.21358 | 83 ft | 18 kts | 214° |
| 2026-04-17 01:01 | 36.85692 | 117.21241 | 83 ft | 12 kts | 232° |
| 2026-04-17 01:01 | 36.85643 | 117.21154 | 83 ft | 11 kts | 235° |
| 2026-04-17 01:01 | 36.85626 | 117.21125 | 83 ft | 3 kts | 233° |
| 2026-04-17 01:02 | 36.85617 | 117.21111 | 83 ft | 0 kts | 234° |
| 2026-04-17 01:02 | 36.85617 | 117.21110 | 83 ft | 0 kts | 234° |